Time;durP1;ratioP1;P1;durP2;ratioP2;P2;SDS_P1;SDS_P2;PMS_P1;PMS_P2;Temp;Humidity;BMP_temperature;BMP_pressure;BME280_temperature;BME280_humidity;BME280_pressure;Samples;Min_cycle;Max_cycle;Signal;HPM_P1;HPM_P2
2022/11/27 00:02:23;;;;;;;15.95;9.90;;;;;;;;;;5000711;28;20034;-75
2022/11/27 00:04:49;;;;;;;17.50;10.93;;;;;;;;;;4983751;28;20033;-73
2022/11/27 00:07:14;;;;;;;17.98;10.93;;;;;;;;;;5005710;28;20500;-74
2022/11/27 00:09:40;;;;;;;23.25;11.13;;;;;;;;;;5002932;28;20038;-74
2022/11/27 00:12:06;;;;;;;18.63;9.70;;;;;;;;;;5003479;28;20532;-74
2022/11/27 00:14:32;;;;;;;16.30;9.02;;;;;;;;;;4993200;28;20517;-75
2022/11/27 00:16:58;;;;;;;12.68;7.93;;;;;;;;;;4996737;28;20045;-76
2022/11/27 00:19:25;;;;;;;14.35;7.78;;;;;;;;;;4982707;28;20053;-76
2022/11/27 00:21:51;;;;;;;12.52;7.93;;;;;;;;;;4996986;28;20530;-73
2022/11/27 00:24:17;;;;;;;12.43;7.25;;;;;;;;;;5008760;28;20045;-73
2022/11/27 00:26:43;;;;;;;12.98;7.15;;;;;;;;;;4996926;28;20397;-72
2022/11/27 00:29:09;;;;;;;16.02;7.80;;;;;;;;;;4998879;28;20042;-73
2022/11/27 00:31:36;;;;;;;12.68;8.55;;;;;;;;;;5009927;28;20478;-73
2022/11/27 00:34:04;;;;;;;12.20;8.00;;;;;;;;;;5001237;28;20125;-76
2022/11/27 00:36:32;;;;;;;13.35;8.50;;;;;;;;;;5002322;28;20443;-73
2022/11/27 00:38:58;;;;;;;10.95;7.05;;;;;;;;;;5009660;28;20046;-74
2022/11/27 00:41:27;;;;;;;13.48;8.18;;;;;;;;;;4995400;28;20037;-74
2022/11/27 00:43:53;;;;;;;12.70;7.13;;;;;;;;;;5000618;28;20060;-74
2022/11/27 00:46:25;;;;;;;10.65;6.95;;;;;;;;;;5002824;28;20121;-75
2022/11/27 00:48:51;;;;;;;11.30;6.88;;;;;;;;;;4995142;28;20038;-75
2022/11/27 00:51:19;;;;;;;12.20;6.95;;;;;;;;;;5005166;28;20032;-74
2022/11/27 00:53:45;;;;;;;11.23;6.82;;;;;;;;;;5004924;28;20128;-74
2022/11/27 00:56:20;;;;;;;9.85;6.80;;;;;;;;;;5006213;28;20116;-74
2022/11/27 00:58:46;;;;;;;13.20;7.22;;;;;;;;;;5006806;28;20050;-73
2022/11/27 01:01:18;;;;;;;12.80;6.45;;;;;;;;;;5002890;28;20033;-73
2022/11/27 01:03:45;;;;;;;11.27;6.65;;;;;;;;;;4999118;28;20073;-75
2022/11/27 01:06:11;;;;;;;12.32;6.75;;;;;;;;;;5007515;28;20022;-74
2022/11/27 01:08:38;;;;;;;11.73;6.82;;;;;;;;;;5006518;28;20117;-74
2022/11/27 01:11:04;;;;;;;13.27;6.55;;;;;;;;;;5004200;28;20373;-75
2022/11/27 01:13:35;;;;;;;8.98;5.78;;;;;;;;;;5002626;28;20032;-75
2022/11/27 01:16:09;;;;;;;15.07;6.93;;;;;;;;;;5004353;28;20043;-74
2022/11/27 01:18:36;;;;;;;8.57;6.13;;;;;;;;;;5011019;28;20037;-74
2022/11/27 01:21:03;;;;;;;10.73;6.15;;;;;;;;;;5006121;28;20030;-74
2022/11/27 01:23:30;;;;;;;9.93;6.60;;;;;;;;;;5009130;28;20411;-74
2022/11/27 01:25:56;;;;;;;9.82;6.40;;;;;;;;;;5006679;28;20508;-74
2022/11/27 01:28:23;;;;;;;10.57;6.70;;;;;;;;;;4998210;28;20117;-74
2022/11/27 01:30:49;;;;;;;10.05;6.65;;;;;;;;;;5009244;28;20494;-75
2022/11/27 01:33:16;;;;;;;10.88;6.43;;;;;;;;;;5004164;28;20036;-74
2022/11/27 01:35:42;;;;;;;13.45;7.53;;;;;;;;;;5007021;28;20038;-74
2022/11/27 01:38:08;;;;;;;10.70;6.65;;;;;;;;;;5005378;28;20037;-73
2022/11/27 01:40:34;;;;;;;10.75;6.80;;;;;;;;;;5001237;28;20061;-75
2022/11/27 01:43:00;;;;;;;13.00;6.95;;;;;;;;;;5001718;28;20479;-74
2022/11/27 01:45:26;;;;;;;10.60;6.32;;;;;;;;;;5007909;28;20033;-75
2022/11/27 01:47:56;;;;;;;10.18;6.13;;;;;;;;;;5002886;28;20056;-74
2022/11/27 01:50:32;;;;;;;8.23;6.07;;;;;;;;;;5002133;28;20038;-75
2022/11/27 01:53:18;;;;;;;8.25;5.90;;;;;;;;;;5008065;28;20484;-74
2022/11/27 01:55:49;;;;;;;9.80;6.13;;;;;;;;;;5007805;28;20046;-74
2022/11/27 01:58:23;;;;;;;12.57;7.55;;;;;;;;;;5007390;28;20038;-74
2022/11/27 02:00:49;;;;;;;14.75;6.95;;;;;;;;;;5006336;28;20046;-73
2022/11/27 02:03:15;;;;;;;9.80;5.90;;;;;;;;;;5012902;28;20022;-74
2022/11/27 02:05:41;;;;;;;11.38;6.15;;;;;;;;;;5012087;28;20041;-74
2022/11/27 02:08:11;;;;;;;11.93;6.82;;;;;;;;;;5011611;28;20033;-75
2022/11/27 02:10:52;;;;;;;12.45;7.28;;;;;;;;;;4995413;28;20399;-74
2022/11/27 02:13:52;;;;;;;14.35;7.82;;;;;;;;;;5012691;28;20061;-74
2022/11/27 02:16:29;;;;;;;8.75;6.15;;;;;;;;;;5012929;28;20060;-73
2022/11/27 02:19:15;;;;;;;12.02;7.15;;;;;;;;;;5012854;28;20112;-74
2022/11/27 02:21:58;;;;;;;9.85;6.43;;;;;;;;;;5012994;28;20348;-74
2022/11/27 02:25:06;;;;;;;10.30;6.47;;;;;;;;;;5013014;28;20045;-75
2022/11/27 02:27:42;;;;;;;10.80;6.47;;;;;;;;;;5012556;28;20050;-75
2022/11/27 02:30:09;;;;;;;11.85;6.88;;;;;;;;;;5012391;28;20030;-74
2022/11/27 02:32:40;;;;;;;11.43;7.13;;;;;;;;;;5012252;28;20030;-75
2022/11/27 02:35:13;;;;;;;12.48;6.88;;;;;;;;;;4992575;28;20038;-76
2022/11/27 02:37:47;;;;;;;11.02;7.18;;;;;;;;;;4995786;28;20395;-75
2022/11/27 02:40:20;;;;;;;14.32;7.38;;;;;;;;;;4994656;28;20094;-74
2022/11/27 02:43:08;;;;;;;10.73;6.53;;;;;;;;;;4992996;28;20060;-74
2022/11/27 02:45:52;;;;;;;9.10;6.28;;;;;;;;;;4992978;28;20045;-75
2022/11/27 02:48:25;;;;;;;8.27;5.68;;;;;;;;;;4992300;28;20118;-75
2022/11/27 02:50:52;;;;;;;9.13;5.20;;;;;;;;;;4991421;28;20031;-75
2022/11/27 02:53:21;;;;;;;7.72;4.68;;;;;;;;;;5005366;28;20026;-74
2022/11/27 02:55:49;;;;;;;6.95;5.13;;;;;;;;;;5014306;28;20041;-75
2022/11/27 02:58:19;;;;;;;7.72;5.07;;;;;;;;;;5011580;28;20107;-75
2022/11/27 03:00:46;;;;;;;8.45;5.35;;;;;;;;;;5028568;28;20038;-75
2022/11/27 03:03:15;;;;;;;8.88;5.72;;;;;;;;;;5011677;28;20021;-75
2022/11/27 03:05:46;;;;;;;7.88;5.30;;;;;;;;;;5011619;28;20492;-75
2022/11/27 03:08:23;;;;;;;8.50;5.70;;;;;;;;;;5010332;28;20172;-74
2022/11/27 03:11:07;;;;;;;8.18;5.10;;;;;;;;;;5011597;28;20476;-75
2022/11/27 03:13:38;;;;;;;8.10;5.50;;;;;;;;;;5011770;28;20034;-75
2022/11/27 03:16:13;;;;;;;7.65;5.28;;;;;;;;;;5012014;28;20057;-74
2022/11/27 03:19:01;;;;;;;8.05;5.75;;;;;;;;;;5011651;28;20095;-74
2022/11/27 03:21:38;;;;;;;8.50;5.35;;;;;;;;;;5011902;28;20042;-74
2022/11/27 03:24:06;;;;;;;8.32;5.43;;;;;;;;;;4997773;28;20096;-75
2022/11/27 03:26:32;;;;;;;8.10;5.93;;;;;;;;;;5011859;28;20045;-75
2022/11/27 03:29:00;;;;;;;8.02;5.30;;;;;;;;;;5011656;28;20060;-75
2022/11/27 03:31:27;;;;;;;9.25;5.72;;;;;;;;;;5011726;28;20022;-74
2022/11/27 03:33:53;;;;;;;9.73;5.72;;;;;;;;;;5011250;28;20022;-75
2022/11/27 03:36:20;;;;;;;13.45;7.30;;;;;;;;;;5009968;28;20034;-75
2022/11/27 03:38:48;;;;;;;11.20;6.80;;;;;;;;;;5010798;28;20064;-75
2022/11/27 03:41:45;;;;;;;11.88;6.68;;;;;;;;;;5011367;28;20495;-75
2022/11/27 03:44:22;;;;;;;9.32;6.40;;;;;;;;;;5011316;28;20034;-74
2022/11/27 03:47:17;;;;;;;9.55;6.18;;;;;;;;;;5011127;28;20126;-75
2022/11/27 03:50:15;;;;;;;9.80;6.28;;;;;;;;;;4985585;28;20052;-75
2022/11/27 03:53:08;;;;;;;8.18;6.03;;;;;;;;;;5006242;28;20046;-74
2022/11/27 03:56:05;;;;;;;8.40;5.90;;;;;;;;;;5010963;28;20120;-74
2022/11/27 03:58:36;;;;;;;7.70;6.00;;;;;;;;;;5026415;28;20503;-74
2022/11/27 04:01:04;;;;;;;11.05;6.65;;;;;;;;;;5009847;28;20037;-74
2022/11/27 04:03:31;;;;;;;10.80;6.72;;;;;;;;;;5011004;28;20026;-73
2022/11/27 04:06:00;;;;;;;14.68;7.72;;;;;;;;;;5010934;28;20041;-74
2022/11/27 04:08:32;;;;;;;10.70;7.38;;;;;;;;;;5007714;28;20034;-75
2022/11/27 04:11:01;;;;;;;11.20;7.55;;;;;;;;;;4994349;28;20112;-74
2022/11/27 04:13:27;;;;;;;11.75;8.18;;;;;;;;;;5010412;28;20156;-74
2022/11/27 04:15:58;;;;;;;12.43;7.90;;;;;;;;;;5009778;28;20046;-74
2022/11/27 04:18:30;;;;;;;11.75;8.07;;;;;;;;;;5009601;28;20420;-75
2022/11/27 04:20:56;;;;;;;12.35;8.07;;;;;;;;;;5009880;28;20480;-74
2022/11/27 04:23:25;;;;;;;12.65;8.07;;;;;;;;;;5009965;28;20530;-74
2022/11/27 04:25:52;;;;;;;12.05;7.95;;;;;;;;;;5010495;28;20030;-74
2022/11/27 04:28:18;;;;;;;11.82;8.48;;;;;;;;;;5010694;28;20068;-74
2022/11/27 04:30:49;;;;;;;16.33;9.10;;;;;;;;;;5010526;28;20165;-74
2022/11/27 04:33:15;;;;;;;12.35;8.55;;;;;;;;;;5010263;28;20030;-74
2022/11/27 04:35:41;;;;;;;13.80;8.90;;;;;;;;;;5010785;28;20037;-75
2022/11/27 04:38:36;;;;;;;13.30;9.40;;;;;;;;;;5010591;28;20030;-75
2022/11/27 04:41:15;;;;;;;14.13;8.68;;;;;;;;;;5003408;28;20496;-75
2022/11/27 04:43:43;;;;;;;11.63;8.43;;;;;;;;;;5011389;28;20133;-76
2022/11/27 04:46:09;;;;;;;13.73;8.55;;;;;;;;;;5010373;28;20109;-76
2022/11/27 04:48:35;;;;;;;12.82;8.38;;;;;;;;;;5010186;28;20044;-76
2022/11/27 04:51:01;;;;;;;13.23;8.43;;;;;;;;;;5013189;28;20034;-75
2022/11/27 04:53:27;;;;;;;12.60;8.70;;;;;;;;;;5013816;28;20037;-75
2022/11/27 04:55:52;;;;;;;12.30;8.43;;;;;;;;;;5014289;28;20033;-75
2022/11/27 04:58:18;;;;;;;14.43;9.88;;;;;;;;;;5014795;28;20038;-75
2022/11/27 05:00:44;;;;;;;13.05;8.98;;;;;;;;;;5013816;28;20022;-75
2022/11/27 05:03:10;;;;;;;13.15;8.93;;;;;;;;;;5013900;28;20048;-75
2022/11/27 05:05:37;;;;;;;16.77;9.52;;;;;;;;;;5013997;28;20029;-76
2022/11/27 05:08:03;;;;;;;13.73;8.80;;;;;;;;;;5013881;28;20060;-75
2022/11/27 05:10:29;;;;;;;14.48;9.15;;;;;;;;;;5013756;28;20029;-75
2022/11/27 05:12:55;;;;;;;13.57;9.23;;;;;;;;;;5013915;28;20037;-75
2022/11/27 05:15:20;;;;;;;12.55;9.05;;;;;;;;;;5013475;28;20427;-74
2022/11/27 05:17:46;;;;;;;13.60;9.35;;;;;;;;;;5013992;28;20376;-75
2022/11/27 05:20:12;;;;;;;16.35;9.50;;;;;;;;;;5012276;28;20040;-75
2022/11/27 05:22:39;;;;;;;14.15;8.90;;;;;;;;;;5013389;28;20049;-75
2022/11/27 05:25:08;;;;;;;14.55;9.63;;;;;;;;;;5012403;28;20123;-74
2022/11/27 05:27:43;;;;;;;13.20;8.55;;;;;;;;;;5013449;28;20033;-74
2022/11/27 05:30:09;;;;;;;13.85;9.00;;;;;;;;;;5012239;28;20046;-74
2022/11/27 05:32:35;;;;;;;14.00;8.25;;;;;;;;;;5011146;28;20148;-74
2022/11/27 05:35:01;;;;;;;12.95;8.50;;;;;;;;;;5010451;28;20440;-75
2022/11/27 05:37:26;;;;;;;13.50;9.52;;;;;;;;;;5020569;28;20036;-75
2022/11/27 05:39:52;;;;;;;13.48;8.68;;;;;;;;;;5018703;28;20042;-75
2022/11/27 05:42:18;;;;;;;15.85;9.15;;;;;;;;;;4994351;28;20073;-75
2022/11/27 05:44:44;;;;;;;14.07;9.45;;;;;;;;;;4993963;28;20088;-75
2022/11/27 05:47:10;;;;;;;12.05;8.27;;;;;;;;;;5013494;28;20122;-75
2022/11/27 05:49:36;;;;;;;13.88;9.00;;;;;;;;;;5013648;28;20034;-75
2022/11/27 05:52:02;;;;;;;14.27;9.27;;;;;;;;;;5011872;28;20026;-75
2022/11/27 05:54:28;;;;;;;16.00;8.52;;;;;;;;;;5006991;28;20022;-77
2022/11/27 05:56:55;;;;;;;14.95;9.50;;;;;;;;;;5013495;28;20404;-79
2022/11/27 05:59:21;;;;;;;15.50;8.48;;;;;;;;;;5025186;28;20033;-77
2022/11/27 06:01:48;;;;;;;14.80;9.48;;;;;;;;;;5027559;28;20064;-76
2022/11/27 06:04:14;;;;;;;15.63;10.38;;;;;;;;;;5014497;28;20033;-77
2022/11/27 06:06:39;;;;;;;13.45;9.15;;;;;;;;;;5014706;28;20033;-77
2022/11/27 06:09:05;;;;;;;14.98;9.73;;;;;;;;;;5014417;28;20061;-77
2022/11/27 06:11:31;;;;;;;25.98;14.10;;;;;;;;;;5014043;28;20030;-76
2022/11/27 06:13:57;;;;;;;18.15;10.55;;;;;;;;;;5013930;28;20018;-78
2022/11/27 06:16:42;;;;;;;15.82;10.70;;;;;;;;;;5012068;28;20030;-77
2022/11/27 06:19:26;;;;;;;15.15;10.00;;;;;;;;;;5013084;28;20483;-77
2022/11/27 06:21:52;;;;;;;17.02;11.20;;;;;;;;;;5014005;28;20034;-77
2022/11/27 06:24:18;;;;;;;14.80;9.90;;;;;;;;;;5014061;28;20049;-77
2022/11/27 06:26:45;;;;;;;18.20;11.23;;;;;;;;;;5016023;28;20029;-77
2022/11/27 06:29:11;;;;;;;20.90;12.00;;;;;;;;;;5014103;28;20096;-77
2022/11/27 06:31:38;;;;;;;19.02;12.38;;;;;;;;;;5013940;28;20045;-77
2022/11/27 06:34:04;;;;;;;23.42;13.40;;;;;;;;;;5014005;28;20025;-79
2022/11/27 06:36:35;;;;;;;22.50;12.85;;;;;;;;;;5013940;28;20037;-78
2022/11/27 06:39:05;;;;;;;19.83;13.60;;;;;;;;;;5011936;28;20077;-78
2022/11/27 06:41:31;;;;;;;24.55;13.73;;;;;;;;;;5013343;28;20036;-79
2022/11/27 06:43:59;;;;;;;24.58;14.75;;;;;;;;;;5011433;28;20040;-77
2022/11/27 06:46:26;;;;;;;21.88;14.40;;;;;;;;;;5013854;28;20105;-77
2022/11/27 06:48:53;;;;;;;23.20;15.00;;;;;;;;;;5010176;28;20042;-76
2022/11/27 06:51:22;;;;;;;24.48;14.00;;;;;;;;;;5012179;28;20029;-78
2022/11/27 06:53:50;;;;;;;20.90;13.82;;;;;;;;;;5009432;28;20026;-78
2022/11/27 06:56:19;;;;;;;23.80;12.60;;;;;;;;;;5011818;28;20084;-76
2022/11/27 06:58:45;;;;;;;18.50;12.23;;;;;;;;;;5012936;28;21038;-78
2022/11/27 07:01:15;;;;;;;18.30;11.88;;;;;;;;;;5012605;28;20025;-78
2022/11/27 07:03:41;;;;;;;17.70;11.68;;;;;;;;;;5011361;28;20429;-77
2022/11/27 07:06:09;;;;;;;20.13;12.43;;;;;;;;;;5011287;28;20109;-77
2022/11/27 07:08:36;;;;;;;15.57;9.73;;;;;;;;;;5013611;28;20029;-76
2022/11/27 07:11:02;;;;;;;16.08;10.65;;;;;;;;;;5012158;28;20472;-78
2022/11/27 07:13:31;;;;;;;17.65;11.45;;;;;;;;;;5012830;28;20037;-76
2022/11/27 07:16:02;;;;;;;18.15;10.82;;;;;;;;;;5012993;28;20041;-76
2022/11/27 07:18:30;;;;;;;17.02;11.50;;;;;;;;;;5010824;28;20038;-76
2022/11/27 07:20:56;;;;;;;17.27;11.02;;;;;;;;;;5011003;28;20017;-77
2022/11/27 07:23:23;;;;;;;18.33;11.90;;;;;;;;;;5011907;28;20380;-78
2022/11/27 07:25:48;;;;;;;21.42;13.32;;;;;;;;;;5011401;28;20052;-77
2022/11/27 07:28:14;;;;;;;17.38;11.35;;;;;;;;;;5007034;28;20034;-78
2022/11/27 07:30:40;;;;;;;19.80;12.02;;;;;;;;;;5010934;28;20033;-77
2022/11/27 07:33:06;;;;;;;23.73;13.60;;;;;;;;;;5011114;28;20030;-77
2022/11/27 07:35:32;;;;;;;23.05;14.40;;;;;;;;;;5009381;28;20878;-79
2022/11/27 07:37:58;;;;;;;26.38;14.63;;;;;;;;;;5009129;28;20466;-75
2022/11/27 07:40:24;;;;;;;19.25;12.20;;;;;;;;;;5013238;28;20017;-78
2022/11/27 07:42:50;;;;;;;16.40;10.88;;;;;;;;;;5009196;28;20427;-78
2022/11/27 07:45:16;;;;;;;19.45;11.40;;;;;;;;;;4990875;28;20029;-77
2022/11/27 07:47:42;;;;;;;17.67;11.07;;;;;;;;;;4992699;28;20520;-78
2022/11/27 07:50:08;;;;;;;21.05;12.43;;;;;;;;;;5001845;28;20049;-76
2022/11/27 07:52:35;;;;;;;24.30;15.50;;;;;;;;;;5026550;28;20080;-76
2022/11/27 07:55:02;;;;;;;22.38;14.02;;;;;;;;;;5011534;28;20443;-75
2022/11/27 07:57:28;;;;;;;23.85;14.52;;;;;;;;;;5011292;28;20103;-77
2022/11/27 07:59:54;;;;;;;26.67;14.32;;;;;;;;;;5012015;28;20045;-76
2022/11/27 08:02:20;;;;;;;20.77;12.95;;;;;;;;;;5010892;28;20034;-77
2022/11/27 08:04:46;;;;;;;21.73;13.63;;;;;;;;;;5011201;28;20535;-78
2022/11/27 08:07:11;;;;;;;15.30;10.52;;;;;;;;;;5010230;28;20065;-76
2022/11/27 08:09:38;;;;;;;15.35;10.18;;;;;;;;;;5010396;28;20017;-79
2022/11/27 08:12:05;;;;;;;16.38;11.07;;;;;;;;;;5008355;28;20041;-77
2022/11/27 08:14:32;;;;;;;19.17;11.77;;;;;;;;;;5012144;28;20015;-77
2022/11/27 08:16:58;;;;;;;17.40;11.27;;;;;;;;;;5012187;28;20053;-76
2022/11/27 08:20:13;;;;;;;19.73;13.82;;;;;;;;;;5012799;28;20503;-78
2022/11/27 08:22:40;;;;;;;22.73;14.85;;;;;;;;;;5011601;28;20025;-77
2022/11/27 08:25:06;;;;;;;20.45;13.77;;;;;;;;;;5011018;28;20100;-77
2022/11/27 08:27:32;;;;;;;27.20;16.45;;;;;;;;;;5012426;28;20025;-76
2022/11/27 08:29:59;;;;;;;35.65;22.85;;;;;;;;;;5011321;28;20022;-78
2022/11/27 08:32:25;;;;;;;39.83;23.52;;;;;;;;;;5012437;28;20516;-77
2022/11/27 08:34:51;;;;;;;34.10;23.67;;;;;;;;;;5009502;28;20014;-77
2022/11/27 08:37:17;;;;;;;33.92;21.48;;;;;;;;;;5012307;28;20042;-78
2022/11/27 08:39:43;;;;;;;28.83;18.75;;;;;;;;;;5011000;28;20068;-76
2022/11/27 08:42:09;;;;;;;24.58;15.93;;;;;;;;;;5011129;28;20108;-78
2022/11/27 08:44:35;;;;;;;26.92;14.10;;;;;;;;;;5011620;28;20018;-76
2022/11/27 08:47:00;;;;;;;23.42;14.52;;;;;;;;;;4995972;28;20030;-78
2022/11/27 08:49:26;;;;;;;22.42;11.35;;;;;;;;;;4993132;28;20050;-76
2022/11/27 08:51:52;;;;;;;19.38;12.63;;;;;;;;;;4993063;28;20034;-76
2022/11/27 08:54:18;;;;;;;28.02;14.60;;;;;;;;;;4992533;28;20077;-76
2022/11/27 08:56:44;;;;;;;26.73;13.93;;;;;;;;;;4992521;28;20039;-76
2022/11/27 08:59:10;;;;;;;18.73;11.70;;;;;;;;;;4992503;28;20076;-76
2022/11/27 09:01:35;;;;;;;25.77;12.10;;;;;;;;;;5000891;28;20053;-76
2022/11/27 09:04:01;;;;;;;20.27;9.85;;;;;;;;;;5010266;28;20068;-77
2022/11/27 09:06:30;;;;;;;16.42;9.65;;;;;;;;;;5007844;28;20496;-77
2022/11/27 09:09:00;;;;;;;22.30;9.45;;;;;;;;;;5011573;28;20510;-77
2022/11/27 09:11:28;;;;;;;14.65;8.07;;;;;;;;;;4992615;28;20177;-77
2022/11/27 09:13:53;;;;;;;25.90;9.20;;;;;;;;;;4992184;28;20092;-77
2022/11/27 09:16:21;;;;;;;14.82;9.15;;;;;;;;;;4992752;28;20122;-79
2022/11/27 09:18:49;;;;;;;19.85;9.45;;;;;;;;;;4992763;28;20050;-78
2022/11/27 09:21:17;;;;;;;29.75;10.70;;;;;;;;;;4992769;28;20505;-77
2022/11/27 09:23:43;;;;;;;16.67;9.38;;;;;;;;;;4992141;28;20042;-76
2022/11/27 09:26:12;;;;;;;16.88;9.23;;;;;;;;;;5009038;28;20104;-76
2022/11/27 09:28:39;;;;;;;19.35;7.07;;;;;;;;;;5011911;28;20037;-78
2022/11/27 09:31:08;;;;;;;10.50;7.38;;;;;;;;;;5011757;28;20034;-78
2022/11/27 09:33:37;;;;;;;19.38;8.43;;;;;;;;;;5011797;28;20488;-78
2022/11/27 09:36:08;;;;;;;16.25;9.52;;;;;;;;;;5013511;28;20570;-78
2022/11/27 09:38:35;;;;;;;13.45;9.38;;;;;;;;;;5015131;28;20038;-78
2022/11/27 09:41:53;;;;;;;22.98;10.18;;;;;;;;;;5017006;28;20025;-79
2022/11/27 09:44:28;;;;;;;17.50;9.45;;;;;;;;;;5016598;28;20118;-77
2022/11/27 09:46:55;;;;;;;21.58;7.97;;;;;;;;;;5015624;28;20030;-78
2022/11/27 09:49:42;;;;;;;14.98;6.82;;;;;;;;;;5015137;28;20384;-78
2022/11/27 09:52:28;;;;;;;19.73;7.40;;;;;;;;;;5012783;28;20152;-79
2022/11/27 09:55:04;;;;;;;24.48;6.80;;;;;;;;;;5012645;28;20514;-79
2022/11/27 09:57:36;;;;;;;15.43;7.68;;;;;;;;;;5015327;28;20132;-79
2022/11/27 10:00:16;;;;;;;13.38;7.38;;;;;;;;;;5016041;28;20038;-80
2022/11/27 10:02:42;;;;;;;15.73;8.00;;;;;;;;;;5014918;28;20103;-81
2022/11/27 10:05:47;;;;;;;13.25;8.23;;;;;;;;;;5015059;28;20026;-78
2022/11/27 10:08:27;;;;;;;23.30;9.57;;;;;;;;;;5001576;28;20130;-78
2022/11/27 10:11:17;;;;;;;17.77;10.35;;;;;;;;;;5015350;28;20041;-78
2022/11/27 10:13:58;;;;;;;18.98;12.30;;;;;;;;;;5015261;28;20488;-76
2022/11/27 10:16:49;;;;;;;22.63;14.43;;;;;;;;;;5014035;28;20048;-76
2022/11/27 10:19:29;;;;;;;20.25;10.75;;;;;;;;;;5014760;28;20507;-78
2022/11/27 10:22:12;;;;;;;14.98;8.80;;;;;;;;;;5015100;28;20044;-74
2022/11/27 10:24:49;;;;;;;13.67;7.63;;;;;;;;;;5014516;28;20115;-77
2022/11/27 10:27:24;;;;;;;11.55;6.95;;;;;;;;;;5014337;28;20283;-76
2022/11/27 10:29:54;;;;;;;13.00;6.47;;;;;;;;;;5012163;28;20089;-76
2022/11/27 10:32:23;;;;;;;16.65;6.68;;;;;;;;;;5015124;28;20184;-76
2022/11/27 10:34:55;;;;;;;10.43;5.97;;;;;;;;;;5014545;28;20025;-76
2022/11/27 10:37:38;;;;;;;10.30;7.20;;;;;;;;;;5022237;28;20062;-77
2022/11/27 10:40:23;;;;;;;8.70;5.50;;;;;;;;;;5026892;28;20038;-77
2022/11/27 10:43:09;;;;;;;10.52;5.18;;;;;;;;;;5008660;28;20053;-77
2022/11/27 10:45:47;;;;;;;10.82;6.47;;;;;;;;;;5020187;28;20049;-77
2022/11/27 10:48:13;;;;;;;11.65;6.63;;;;;;;;;;5019865;28;20038;-76
2022/11/27 10:50:40;;;;;;;20.02;8.48;;;;;;;;;;5014321;28;20022;-78
2022/11/27 10:53:33;;;;;;;18.48;9.90;;;;;;;;;;5013373;28;20069;-79
2022/11/27 10:56:12;;;;;;;24.00;10.30;;;;;;;;;;5014085;28;20053;-77
2022/11/27 10:58:49;;;;;;;17.08;7.85;;;;;;;;;;5014001;28;20029;-77
2022/11/27 11:01:18;;;;;;;15.25;8.27;;;;;;;;;;5012548;28;20061;-78
2022/11/27 11:03:45;;;;;;;9.65;5.75;;;;;;;;;;5014190;28;20029;-78
2022/11/27 11:06:19;;;;;;;15.75;7.90;;;;;;;;;;5010488;28;20397;-80
2022/11/27 11:08:45;;;;;;;21.30;11.05;;;;;;;;;;4993702;28;20546;-78
2022/11/27 11:11:10;;;;;;;14.88;9.98;;;;;;;;;;4994436;28;20035;-77
2022/11/27 11:13:39;;;;;;;21.48;11.43;;;;;;;;;;4992960;28;20496;-77
2022/11/27 11:16:11;;;;;;;23.52;12.70;;;;;;;;;;4998081;28;20113;-77
2022/11/27 11:18:43;;;;;;;25.17;15.23;;;;;;;;;;5013601;28;20116;-78
2022/11/27 11:21:15;;;;;;;40.92;21.50;;;;;;;;;;4995396;28;20034;-77
2022/11/27 11:23:42;;;;;;;26.10;16.90;;;;;;;;;;5010929;28;20076;-76
2022/11/27 11:26:20;;;;;;;27.60;15.05;;;;;;;;;;5013744;28;20126;-78
2022/11/27 11:28:53;;;;;;;23.20;14.20;;;;;;;;;;5012135;28;20084;-78
2022/11/27 11:31:22;;;;;;;29.88;14.23;;;;;;;;;;5011247;28;20591;-78
2022/11/27 11:33:57;;;;;;;25.23;13.35;;;;;;;;;;5013058;28;20037;-78
2022/11/27 11:36:23;;;;;;;25.23;14.88;;;;;;;;;;5027961;28;20068;-79
2022/11/27 11:38:49;;;;;;;24.02;13.98;;;;;;;;;;5012132;28;20061;-79
2022/11/27 11:41:17;;;;;;;17.70;11.05;;;;;;;;;;5012485;28;20084;-79
2022/11/27 11:44:20;;;;;;;26.25;13.45;;;;;;;;;;5011182;28;20022;-78
2022/11/27 11:46:54;;;;;;;17.67;9.25;;;;;;;;;;4989947;28;20064;-77
2022/11/27 11:49:24;;;;;;;16.85;8.25;;;;;;;;;;4993540;28;20038;-77
2022/11/27 11:52:19;;;;;;;11.40;6.40;;;;;;;;;;4993709;28;20030;-77
2022/11/27 11:54:55;;;;;;;18.30;7.15;;;;;;;;;;4993883;28;20104;-78
2022/11/27 11:57:51;;;;;;;22.00;8.30;;;;;;;;;;5004762;28;20061;-78
2022/11/27 12:00:23;;;;;;;11.75;6.60;;;;;;;;;;5001306;28;20068;-78
2022/11/27 12:02:54;;;;;;;15.85;7.25;;;;;;;;;;5010256;28;20049;-78
2022/11/27 12:05:45;;;;;;;26.85;10.10;;;;;;;;;;5010237;28;20123;-78
2022/11/27 12:08:32;;;;;;;14.77;7.78;;;;;;;;;;5011006;28;20058;-78
2022/11/27 12:11:14;;;;;;;15.98;8.70;;;;;;;;;;5012400;28;20029;-79
2022/11/27 12:13:52;;;;;;;13.65;7.25;;;;;;;;;;5012471;28;20038;-78
2022/11/27 12:17:02;;;;;;;11.80;6.45;;;;;;;;;;5012793;28;20042;-78
2022/11/27 12:19:58;;;;;;;12.55;6.18;;;;;;;;;;4980022;28;20054;-77
2022/11/27 12:22:36;;;;;;;19.25;7.55;;;;;;;;;;5012526;28;20427;-77
2022/11/27 12:25:12;;;;;;;16.02;8.65;;;;;;;;;;5012787;28;20038;-78
2022/11/27 12:28:21;;;;;;;81.22;33.45;;;;;;;;;;5012973;28;20481;-78
2022/11/27 12:31:19;;;;;;;17.52;9.70;;;;;;;;;;5013291;28;20045;-77
2022/11/27 12:33:58;;;;;;;17.17;10.63;;;;;;;;;;5012844;28;20029;-77
2022/11/27 12:36:30;;;;;;;17.17;9.63;;;;;;;;;;5012888;28;20132;-77
2022/11/27 12:39:14;;;;;;;25.35;13.43;;;;;;;;;;5012664;28;20109;-78
2022/11/27 12:42:00;;;;;;;25.73;12.38;;;;;;;;;;5012546;28;20030;-77
2022/11/27 12:44:53;;;;;;;6.00;3.00;;;;;;;;;;5012462;28;20034;-78
2022/11/27 12:47:41;;;;;;;12.35;7.65;;;;;;;;;;5006275;28;20046;-77
2022/11/27 12:50:26;;;;;;;13.35;7.40;;;;;;;;;;5012313;28;20048;-78
2022/11/27 12:53:18;;;;;;;14.23;6.18;;;;;;;;;;5012418;28;20480;-78
2022/11/27 12:56:15;;;;;;;22.20;11.00;;;;;;;;;;5012269;28;20121;-77
2022/11/27 12:58:50;;;;;;;22.60;11.10;;;;;;;;;;5010811;28;20052;-78
2022/11/27 13:02:02;;;;;;;13.98;7.60;;;;;;;;;;5012998;28;20115;-78
2022/11/27 13:04:50;;;;;;;11.10;6.80;;;;;;;;;;4986161;28;20057;-78
2022/11/27 13:07:21;;;;;;;15.48;7.35;;;;;;;;;;5010780;28;20034;-77
2022/11/27 13:09:58;;;;;;;12.27;8.10;;;;;;;;;;5012341;28;20030;-77
2022/11/27 13:12:31;;;;;;;11.70;4.28;;;;;;;;;;5010599;28;20038;-78
2022/11/27 13:15:02;;;;;;;10.07;4.10;;;;;;;;;;4995061;28;20034;-78
2022/11/27 13:17:37;;;;;;;17.08;9.32;;;;;;;;;;4995306;28;20061;-76
2022/11/27 13:20:13;;;;;;;8.68;5.43;;;;;;;;;;4996540;28;20088;-79
2022/11/27 13:22:41;;;;;;;7.72;3.95;;;;;;;;;;4996364;28;20026;-78
2022/11/27 13:25:13;;;;;;;6.68;4.13;;;;;;;;;;4996249;28;20133;-77
2022/11/27 13:27:43;;;;;;;6.00;3.50;;;;;;;;;;4996053;28;20113;-77
2022/11/27 13:30:29;;;;;;;9.05;4.00;;;;;;;;;;4996376;28;20038;-77
2022/11/27 13:33:00;;;;;;;4.70;2.67;;;;;;;;;;4996282;28;20400;-78
2022/11/27 13:35:42;;;;;;;6.50;3.10;;;;;;;;;;4995898;28;20042;-77
2022/11/27 13:38:22;;;;;;;8.95;4.70;;;;;;;;;;4995773;28;20044;-78
2022/11/27 13:40:52;;;;;;;8.77;5.28;;;;;;;;;;4995748;28;20077;-79
2022/11/27 13:43:31;;;;;;;7.85;4.40;;;;;;;;;;4995805;28;20038;-79
2022/11/27 13:46:25;;;;;;;7.75;3.80;;;;;;;;;;4995861;28;20404;-80
2022/11/27 13:49:01;;;;;;;11.88;6.13;;;;;;;;;;4994985;28;20050;-79
2022/11/27 13:51:33;;;;;;;9.07;5.00;;;;;;;;;;4979596;28;20045;-78
2022/11/27 13:54:18;;;;;;;11.45;6.47;;;;;;;;;;4996022;28;20092;-78
2022/11/27 13:56:46;;;;;;;7.90;4.13;;;;;;;;;;4995278;28;20044;-77
2022/11/27 13:59:21;;;;;;;8.93;4.43;;;;;;;;;;4996179;28;20026;-77
2022/11/27 14:01:59;;;;;;;10.13;5.78;;;;;;;;;;4996231;28;20121;-77
2022/11/27 14:04:27;;;;;;;11.35;6.45;;;;;;;;;;4995882;28;20038;-77
2022/11/27 14:07:08;;;;;;;10.52;7.00;;;;;;;;;;4995766;28;20449;-77
2022/11/27 14:09:40;;;;;;;12.93;6.80;;;;;;;;;;4995405;28;20038;-75
2022/11/27 14:12:26;;;;;;;16.45;7.10;;;;;;;;;;4994169;28;20039;-77
2022/11/27 14:15:06;;;;;;;10.15;4.80;;;;;;;;;;4995081;28;20034;-78
2022/11/27 14:17:36;;;;;;;13.57;6.20;;;;;;;;;;4995401;28;20048;-76
2022/11/27 14:20:20;;;;;;;14.63;7.50;;;;;;;;;;4995228;28;20035;-78
2022/11/27 14:22:54;;;;;;;23.00;13.73;;;;;;;;;;4993687;28;20397;-78
2022/11/27 14:25:28;;;;;;;23.35;12.85;;;;;;;;;;4995227;28;20097;-77
2022/11/27 14:28:03;;;;;;;20.33;8.63;;;;;;;;;;4995343;28;20034;-78
2022/11/27 14:30:31;;;;;;;15.80;9.60;;;;;;;;;;4995447;28;20484;-77
2022/11/27 14:32:58;;;;;;;26.48;11.18;;;;;;;;;;4995780;28;20444;-78
2022/11/27 14:35:26;;;;;;;20.45;11.57;;;;;;;;;;4996750;28;20041;-78
2022/11/27 14:37:52;;;;;;;20.15;8.73;;;;;;;;;;4996115;28;20138;-78
2022/11/27 14:40:25;;;;;;;16.85;7.57;;;;;;;;;;4995086;28;20078;-77
2022/11/27 14:42:51;;;;;;;9.95;5.20;;;;;;;;;;4995161;28;20069;-77
2022/11/27 14:45:20;;;;;;;8.38;5.20;;;;;;;;;;4994653;28;20547;-78
2022/11/27 14:47:51;;;;;;;11.90;5.10;;;;;;;;;;4993498;28;20042;-77
2022/11/27 14:50:19;;;;;;;10.35;6.47;;;;;;;;;;4995326;28;20058;-78
2022/11/27 14:52:53;;;;;;;21.02;9.10;;;;;;;;;;4994722;28;20451;-77
2022/11/27 14:55:20;;;;;;;9.52;5.97;;;;;;;;;;4994639;28;20483;-77
2022/11/27 14:57:48;;;;;;;10.20;5.82;;;;;;;;;;4994689;28;20518;-78
2022/11/27 15:00:23;;;;;;;10.02;5.40;;;;;;;;;;4994823;28;20034;-77